Cruzeiro Do Canal — CSVG — position and weather

sailwx.info

Track history (hours):
 
Tides and Currents Weather Stations Pressure Air Temp Water Temp Dewpoint Dewpoint Depression Visibility Wind Speed Wind Dir Waves Ship Positions

Cruzeiro Do Canal

Last reported at 2016-Feb-10 21:34 UTC. Time now 2016-Feb-11 00:26 UTC.
Position N 38°32' W 028°37'.

Length 32 m; draft 2.3 m.

Type: Passenger vessel. MMSI: 204701250.

Date/timePositionNaut miles runAvg speedWind from/ knotsBaromVisibWave heightAir tempDewpointWater temp
2016-Feb-10 21:34N 38°32' W 028°37'0 0.0
2016-Feb-10 20:33N 38°32' W 028°37'1 0.9
2016-Feb-10 19:34N 38°32' W 028°36'0 0.1
2016-Feb-10 18:33N 38°32' W 028°36'1 1.1
2016-Feb-10 17:33N 38°32' W 028°37'0 0.0
2016-Feb-08 19:34N 38°32' W 028°37'3 3.1
2016-Feb-08 18:34N 38°32' W 028°33'3 0.1
2016-Feb-07 19:33N 38°32' W 028°37'3 3.0
2016-Feb-07 18:34N 38°32' W 028°33'3 3.0
2016-Feb-07 17:33N 38°32' W 028°37'0 0.0
2016-Feb-07 16:34N 38°32' W 028°37'0 0.0
2016-Feb-05 19:33N 38°32' W 028°37'3 3.3
2016-Feb-05 18:33N 38°32' W 028°33'3 3.3
2016-Feb-05 17:34N 38°32' W 028°37'0 0.0
2016-Feb-05 16:33N 38°32' W 028°37'0 0.0
2016-Feb-03 19:32N 38°32' W 028°37'2 2.4
2016-Feb-03 18:33N 38°33' W 028°34'2 2.4
2016-Feb-03 17:33N 38°32' W 028°37'0 0.0
2016-Feb-03 16:33N 38°32' W 028°37'0 0.0
2016-Feb-03 15:34N 38°32' W 028°37'3 2.8
2016-Feb-03 14:33N 38°32' W 028°34'3 2.8
2016-Feb-03 13:34N 38°32' W 028°37'4 4.0
2016-Feb-03 12:34N 38°32' W 028°32'4 4.0
2016-Feb-03 11:33N 38°32' W 028°37'0 0.0
2016-Feb-03 10:33N 38°32' W 028°37'2 1.8
2016-Feb-03 09:33N 38°32' W 028°35'2 1.7
2016-Feb-03 08:33N 38°32' W 028°37'0 0.0
2016-Feb-02 19:32N 38°32' W 028°37'3 3.2
2016-Feb-02 18:33N 38°32' W 028°33'3 3.2
2016-Feb-02 17:33N 38°32' W 028°37'0 0.0
2016-Feb-02 16:33N 38°32' W 028°37'0 0.0
2016-Feb-02 15:34N 38°32' W 028°37'3 2.9
2016-Feb-02 14:33N 38°32' W 028°33'3 2.9
2016-Feb-02 13:33N 38°32' W 028°37'4 4.0
2016-Feb-02 12:33N 38°32' W 028°32'4 4.0
2016-Feb-02 11:34N 38°32' W 028°37'0 0.0
2016-Feb-02 10:33N 38°32' W 028°37'2 2.0
2016-Feb-02 09:33N 38°32' W 028°35'2 2.0
2016-Feb-02 08:33N 38°32' W 028°37'0 0.0
2016-Feb-01 19:33N 38°32' W 028°37'3 3.2
2016-Feb-01 18:33N 38°32' W 028°33'3 3.2
2016-Feb-01 17:33N 38°32' W 028°37'0 0.0
2016-Feb-01 16:33N 38°32' W 028°37'0 0.0
2016-Feb-01 15:33N 38°32' W 028°37'3 2.7
2016-Feb-01 14:33N 38°32' W 028°34'3 2.7
2016-Feb-01 13:33N 38°32' W 028°37'4 4.1
2016-Feb-01 12:33N 38°32' W 028°32'4 4.1
2016-Feb-01 11:33N 38°32' W 028°37'3 2.6
2016-Feb-01 10:33N 38°32' W 028°34'1 1.1
2016-Feb-01 09:33N 38°32' W 028°33'4 3.7
2016-Feb-01 08:33N 38°32' W 028°37'  
Track history (hours):
 
Tides and Currents Weather Stations Pressure Air Temp Water Temp Dewpoint Dewpoint Depression Visibility Wind Speed Wind Dir Waves Ship Positions

Cruzeiro Do Canal

Last reported at 2016-Feb-10 21:34 UTC. Time now 2016-Feb-11 00:26 UTC.
Position N 38°32' W 028°37'.

Length 32 m; draft 2.3 m.

Type: Passenger vessel. MMSI: 204701250.

Date/timePositionNaut miles runAvg speedWind from/ knotsBaromVisibWave heightAir tempDewpointWater temp
2016-Feb-10 21:34N 38°32' W 028°37'0 0.0
2016-Feb-10 20:33N 38°32' W 028°37'1 0.9
2016-Feb-10 19:34N 38°32' W 028°36'0 0.1
2016-Feb-10 18:33N 38°32' W 028°36'1 1.1
2016-Feb-10 17:33N 38°32' W 028°37'0 0.0
2016-Feb-08 19:34N 38°32' W 028°37'3 3.1
2016-Feb-08 18:34N 38°32' W 028°33'3 0.1
2016-Feb-07 19:33N 38°32' W 028°37'3 3.0
2016-Feb-07 18:34N 38°32' W 028°33'3 3.0
2016-Feb-07 17:33N 38°32' W 028°37'0 0.0
2016-Feb-07 16:34N 38°32' W 028°37'0 0.0
2016-Feb-05 19:33N 38°32' W 028°37'3 3.3
2016-Feb-05 18:33N 38°32' W 028°33'3 3.3
2016-Feb-05 17:34N 38°32' W 028°37'0 0.0
2016-Feb-05 16:33N 38°32' W 028°37'0 0.0
2016-Feb-03 19:32N 38°32' W 028°37'2 2.4
2016-Feb-03 18:33N 38°33' W 028°34'2 2.4
2016-Feb-03 17:33N 38°32' W 028°37'0 0.0
2016-Feb-03 16:33N 38°32' W 028°37'0 0.0
2016-Feb-03 15:34N 38°32' W 028°37'3 2.8
2016-Feb-03 14:33N 38°32' W 028°34'3 2.8
2016-Feb-03 13:34N 38°32' W 028°37'4 4.0
2016-Feb-03 12:34N 38°32' W 028°32'4 4.0
2016-Feb-03 11:33N 38°32' W 028°37'0 0.0
2016-Feb-03 10:33N 38°32' W 028°37'2 1.8
2016-Feb-03 09:33N 38°32' W 028°35'2 1.7
2016-Feb-03 08:33N 38°32' W 028°37'0 0.0
2016-Feb-02 19:32N 38°32' W 028°37'3 3.2
2016-Feb-02 18:33N 38°32' W 028°33'3 3.2
2016-Feb-02 17:33N 38°32' W 028°37'0 0.0
2016-Feb-02 16:33N 38°32' W 028°37'0 0.0
2016-Feb-02 15:34N 38°32' W 028°37'3 2.9
2016-Feb-02 14:33N 38°32' W 028°33'3 2.9
2016-Feb-02 13:33N 38°32' W 028°37'4 4.0
2016-Feb-02 12:33N 38°32' W 028°32'4 4.0
2016-Feb-02 11:34N 38°32' W 028°37'0 0.0
2016-Feb-02 10:33N 38°32' W 028°37'2 2.0
2016-Feb-02 09:33N 38°32' W 028°35'2 2.0
2016-Feb-02 08:33N 38°32' W 028°37'0 0.0
2016-Feb-01 19:33N 38°32' W 028°37'3 3.2
2016-Feb-01 18:33N 38°32' W 028°33'3 3.2
2016-Feb-01 17:33N 38°32' W 028°37'0 0.0
2016-Feb-01 16:33N 38°32' W 028°37'0 0.0
2016-Feb-01 15:33N 38°32' W 028°37'3 2.7
2016-Feb-01 14:33N 38°32' W 028°34'3 2.7
2016-Feb-01 13:33N 38°32' W 028°37'4 4.1
2016-Feb-01 12:33N 38°32' W 028°32'4 4.1
2016-Feb-01 11:33N 38°32' W 028°37'3 2.6
2016-Feb-01 10:33N 38°32' W 028°34'1 1.1
2016-Feb-01 09:33N 38°32' W 028°33'4 3.7
2016-Feb-01 08:33N 38°32' W 028°37'  

Dump ship's entire track history